Time;durP1;ratioP1;P1;durP2;ratioP2;P2;SDS_P1;SDS_P2;PMS_P1;PMS_P2;Temp;Humidity;BMP_temperature;BMP_pressure;BME280_temperature;BME280_humidity;BME280_pressure;Samples;Min_cycle;Max_cycle;Signal;HPM_P1;HPM_P2
2021/08/23 00:02:26;;;;;;;14.45;12.98;;;;;;;17.29;100.00;101723.56;5171814;28;20074;-67
2021/08/23 00:04:57;;;;;;;15.23;12.87;;;;;;;17.28;100.00;101730.66;5172443;28;20038;-67
2021/08/23 00:07:29;;;;;;;17.30;13.17;;;;;;;17.25;100.00;101728.31;5171896;28;20042;-66
2021/08/23 00:10:00;;;;;;;14.63;13.13;;;;;;;17.26;100.00;101725.50;5170839;28;20031;-66
2021/08/23 00:12:31;;;;;;;14.50;13.00;;;;;;;17.26;100.00;101725.50;5172769;28;20113;-67
2021/08/23 00:15:06;;;;;;;13.50;11.97;;;;;;;17.29;100.00;101720.91;5172177;28;20547;-67
2021/08/23 00:17:37;;;;;;;15.35;13.13;;;;;;;17.26;100.00;101728.16;5171967;28;20035;-66
2021/08/23 00:20:16;;;;;;;16.35;12.20;;;;;;;17.32;100.00;101733.84;5170567;28;20489;-67
2021/08/23 00:22:48;;;;;;;15.23;13.63;;;;;;;17.25;100.00;101734.44;5172018;28;20027;-67
2021/08/23 00:25:19;;;;;;;16.83;13.35;;;;;;;17.25;100.00;101738.91;5172255;28;20049;-67
2021/08/23 00:27:50;;;;;;;15.17;13.30;;;;;;;17.26;100.00;101738.75;5171931;28;20049;-67
2021/08/23 00:30:22;;;;;;;15.23;13.63;;;;;;;17.29;100.00;101736.78;5171476;28;20027;-67
2021/08/23 00:32:53;;;;;;;14.23;12.80;;;;;;;17.29;100.00;101742.94;5171741;28;20062;-66
2021/08/23 00:35:24;;;;;;;15.35;13.15;;;;;;;17.27;100.00;101745.72;5172271;28;20485;-67
2021/08/23 00:37:57;;;;;;;13.73;12.38;;;;;;;17.27;100.00;101740.44;5169126;28;20029;-67
2021/08/23 00:40:28;;;;;;;15.00;13.30;;;;;;;17.28;100.00;101743.91;5171790;28;20149;-66
2021/08/23 00:43:00;;;;;;;15.27;13.68;;;;;;;17.27;100.00;101737.78;5172346;28;20033;-66
2021/08/23 00:45:31;;;;;;;15.52;13.85;;;;;;;17.29;100.00;101729.69;5170441;28;20484;-66
2021/08/23 00:48:03;;;;;;;14.15;12.75;;;;;;;17.29;100.00;101740.28;5171870;28;20117;-66
2021/08/23 00:50:35;;;;;;;15.88;14.27;;;;;;;17.27;100.00;101739.56;5169990;28;20033;-66
2021/08/23 00:53:06;;;;;;;15.53;14.03;;;;;;;17.26;100.00;101749.34;5172126;28;20059;-66
2021/08/23 00:55:37;;;;;;;13.65;12.25;;;;;;;17.26;100.00;101749.34;5172105;28;20026;-66
2021/08/23 00:58:09;;;;;;;14.98;13.40;;;;;;;17.25;100.00;101745.03;5173111;28;20030;-66
2021/08/23 01:00:45;;;;;;;15.25;13.85;;;;;;;17.26;100.00;101746.69;5172324;28;20049;-66
2021/08/23 01:03:43;;;;;;;15.40;13.90;;;;;;;17.29;100.00;101744.75;5170529;28;20113;-66
2021/08/23 01:06:15;;;;;;;15.93;14.32;;;;;;;17.24;100.00;101748.69;5172397;28;20505;-66
2021/08/23 01:08:49;;;;;;;14.88;13.50;;;;;;;17.24;100.00;101748.69;5172015;28;20027;-66
2021/08/23 01:11:21;;;;;;;15.68;14.07;;;;;;;17.25;100.00;101739.75;5171783;28;20101;-66
2021/08/23 01:13:52;;;;;;;14.43;13.02;;;;;;;17.25;100.00;101753.00;5172077;28;20031;-66
2021/08/23 01:16:24;;;;;;;15.40;13.68;;;;;;;17.25;100.00;101746.88;5172531;28;20027;-67
2021/08/23 01:18:55;;;;;;;15.00;13.50;;;;;;;17.25;100.00;101760.94;5172100;28;20033;-66
2021/08/23 01:21:31;;;;;;;17.10;15.43;;;;;;;17.29;100.00;101761.47;5170698;28;20039;-66
2021/08/23 01:24:07;;;;;;;17.35;15.70;;;;;;;17.27;100.00;101766.06;5172469;28;20027;-66
2021/08/23 01:26:46;;;;;;;18.40;16.60;;;;;;;17.29;100.00;101757.97;5172179;28;20388;-66
2021/08/23 01:29:24;;;;;;;19.42;17.50;;;;;;;17.26;100.00;101770.53;5171285;28;20054;-66
2021/08/23 01:31:55;;;;;;;20.95;18.17;;;;;;;17.27;100.00;101771.38;5171919;28;20027;-67
2021/08/23 01:34:27;;;;;;;20.40;18.52;;;;;;;17.30;100.00;101775.53;5171832;28;20696;-66
2021/08/23 01:36:58;;;;;;;20.52;18.55;;;;;;;17.30;100.00;101776.38;5172821;28;20046;-67
2021/08/23 01:39:32;;;;;;;19.67;17.40;;;;;;;17.33;100.00;101783.19;5171337;28;20057;-66
2021/08/23 01:42:03;;;;;;;21.15;19.02;;;;;;;17.34;100.00;101792.78;5172057;28;20031;-66
2021/08/23 01:44:38;;;;;;;21.70;19.45;;;;;;;17.39;100.00;101791.38;5171321;28;20031;-66
2021/08/23 01:47:09;;;;;;;19.70;17.88;;;;;;;17.35;100.00;101794.44;5171479;28;20033;-66
2021/08/23 01:49:41;;;;;;;21.03;18.93;;;;;;;17.36;100.00;101793.47;5169831;28;20035;-67
2021/08/23 01:52:13;;;;;;;20.70;18.27;;;;;;;17.39;100.00;101796.66;5172685;28;20109;-66
2021/08/23 01:54:45;;;;;;;20.35;18.45;;;;;;;17.39;100.00;101812.56;5169487;28;20248;-66
2021/08/23 01:57:17;;;;;;;18.55;16.85;;;;;;;17.41;100.00;101809.75;5171914;28;20386;-66
2021/08/23 01:59:48;;;;;;;20.63;18.60;;;;;;;17.42;100.00;101814.03;5171667;28;20314;-66
2021/08/23 02:02:20;;;;;;;21.80;19.67;;;;;;;17.43;100.00;101816.56;5170286;28;20031;-66
2021/08/23 02:04:51;;;;;;;22.90;20.80;;;;;;;17.44;100.00;101828.00;5171982;28;20035;-66
2021/08/23 02:07:22;;;;;;;22.15;19.83;;;;;;;17.43;100.00;101821.88;5171294;28;20018;-66
2021/08/23 02:09:56;;;;;;;21.70;19.70;;;;;;;17.41;100.00;101834.41;5171925;28;20026;-66
2021/08/23 02:12:27;;;;;;;24.83;22.23;;;;;;;17.40;100.00;101832.75;5171470;28;20031;-66
2021/08/23 02:14:58;;;;;;;24.92;22.23;;;;;;;17.42;100.00;101844.03;5174461;28;20030;-67
2021/08/23 02:17:30;;;;;;;24.20;21.70;;;;;;;17.42;100.00;101836.06;5176117;28;20260;-66
2021/08/23 02:20:07;;;;;;;23.20;20.87;;;;;;;17.44;100.00;101843.88;5174008;28;20022;-67
2021/08/23 02:22:41;;;;;;;24.13;21.73;;;;;;;17.36;100.00;101847.28;5174962;28;20034;-66
2021/08/23 02:25:19;;;;;;;25.85;23.08;;;;;;;17.37;100.00;101851.59;5175004;28;20025;-66
2021/08/23 02:27:52;;;;;;;24.67;22.33;;;;;;;17.37;100.00;101856.06;5173756;28;20135;-66
2021/08/23 02:30:23;;;;;;;24.65;22.17;;;;;;;17.37;100.00;101864.00;5175109;28;20031;-66
2021/08/23 02:32:55;;;;;;;27.60;24.70;;;;;;;17.37;100.00;101864.84;5175424;28;20503;-66
2021/08/23 02:35:26;;;;;;;28.87;25.80;;;;;;;17.34;100.00;101865.13;5173829;28;20453;-66
2021/08/23 02:37:58;;;;;;;28.88;26.00;;;;;;;17.33;100.00;101878.53;5171759;28;20389;-67
2021/08/23 02:40:29;;;;;;;27.80;25.10;;;;;;;17.29;100.00;101878.00;5173531;28;20046;-66
2021/08/23 02:43:01;;;;;;;28.20;25.48;;;;;;;17.25;100.00;101887.22;5175285;28;20077;-66
2021/08/23 02:45:32;;;;;;;27.30;24.70;;;;;;;17.19;100.00;101887.81;5174979;28;20041;-66
2021/08/23 02:48:04;;;;;;;27.30;24.42;;;;;;;17.21;100.00;101886.69;5174541;28;20077;-66
2021/08/23 02:50:35;;;;;;;27.10;24.30;;;;;;;17.17;100.00;101884.50;5173802;28;20057;-67
2021/08/23 02:53:07;;;;;;;28.05;25.23;;;;;;;17.16;100.00;101888.09;5175852;28;20571;-67
2021/08/23 02:55:38;;;;;;;25.75;23.20;;;;;;;17.13;100.00;101891.88;5174821;28;20029;-66
2021/08/23 02:58:10;;;;;;;26.63;23.83;;;;;;;17.11;100.00;101891.19;5174881;28;20041;-66
2021/08/23 03:00:41;;;;;;;27.70;24.90;;;;;;;17.10;100.00;101899.28;5174729;28;20057;-66
2021/08/23 03:03:12;;;;;;;30.37;27.17;;;;;;;17.07;100.00;101897.75;5173927;28;20396;-66
2021/08/23 03:05:43;;;;;;;28.95;26.00;;;;;;;17.06;100.00;101900.56;5174929;28;20477;-67
2021/08/23 03:08:15;;;;;;;28.17;25.42;;;;;;;17.06;100.00;101898.75;5174861;28;20037;-66
2021/08/23 03:10:46;;;;;;;30.08;26.92;;;;;;;17.05;100.00;101910.34;5173320;28;20022;-67
2021/08/23 03:13:18;;;;;;;28.70;25.67;;;;;;;17.06;100.00;101912.00;5174602;28;20487;-66
2021/08/23 03:15:49;;;;;;;28.80;26.00;;;;;;;17.05;100.00;101912.13;5173061;28;20037;-67
2021/08/23 03:18:21;;;;;;;29.90;26.73;;;;;;;17.04;100.00;101916.59;5174011;28;20026;-66
2021/08/23 03:20:52;;;;;;;30.85;27.58;;;;;;;17.06;100.00;101921.75;5173100;28;20026;-66
2021/08/23 03:23:23;;;;;;;32.55;29.13;;;;;;;17.00;100.00;101923.97;5174529;28;20058;-66
2021/08/23 03:25:55;;;;;;;32.22;28.90;;;;;;;17.03;100.00;101923.69;5173543;28;20018;-67
2021/08/23 03:28:26;;;;;;;32.55;29.13;;;;;;;17.03;100.00;101936.94;5174207;28;20069;-67
2021/08/23 03:30:57;;;;;;;31.30;28.10;;;;;;;17.04;100.00;101929.81;5173625;28;20041;-67
2021/08/23 03:33:29;;;;;;;32.30;28.98;;;;;;;17.04;100.00;101929.81;5173942;28;20038;-66
2021/08/23 03:36:00;;;;;;;31.90;28.75;;;;;;;17.00;100.00;101934.56;5174052;28;20064;-66
2021/08/23 03:38:32;;;;;;;32.78;29.60;;;;;;;17.03;100.00;101944.03;5173098;28;20122;-66
2021/08/23 03:41:03;;;;;;;33.40;29.65;;;;;;;17.01;100.00;101948.66;5174574;28;20015;-66
2021/08/23 03:43:34;;;;;;;31.40;28.17;;;;;;;17.02;100.00;101945.88;5174074;28;20033;-66
2021/08/23 03:46:05;;;;;;;28.83;26.13;;;;;;;17.05;100.00;101957.13;5173292;28;20022;-66
2021/08/23 03:48:37;;;;;;;30.98;27.75;;;;;;;17.04;100.00;101958.94;5173544;28;20046;-66
2021/08/23 03:51:08;;;;;;;30.92;27.75;;;;;;;17.02;100.00;101961.75;5174177;28;20087;-67
2021/08/23 03:53:39;;;;;;;31.75;28.48;;;;;;;17.02;100.00;101972.34;5174078;28;20034;-68
2021/08/23 03:56:11;;;;;;;30.33;27.27;;;;;;;17.01;100.00;101975.16;5174013;28;20050;-68
2021/08/23 03:58:42;;;;;;;30.48;27.02;;;;;;;17.02;100.00;101977.63;5173623;28;20035;-67
2021/08/23 04:01:13;;;;;;;30.02;26.85;;;;;;;17.00;100.00;101978.75;5171834;28;20034;-67
2021/08/23 04:03:45;;;;;;;28.75;25.95;;;;;;;17.00;100.00;101990.16;5173134;28;20053;-67
2021/08/23 04:06:16;;;;;;;28.88;26.00;;;;;;;16.99;100.00;101988.50;5172898;28;20031;-67
2021/08/23 04:08:47;;;;;;;29.23;26.20;;;;;;;17.02;100.00;101984.75;5173481;28;20027;-68
2021/08/23 04:11:19;;;;;;;28.60;25.70;;;;;;;16.97;100.00;101989.63;5174090;28;20038;-68
2021/08/23 04:13:50;;;;;;;28.42;25.55;;;;;;;17.00;100.00;101989.34;5172231;28;20094;-67
2021/08/23 04:16:21;;;;;;;26.35;23.85;;;;;;;16.98;100.00;101993.97;5173816;28;20085;-68
2021/08/23 04:18:52;;;;;;;28.10;25.20;;;;;;;17.00;100.00;101997.28;5172219;28;20715;-67
2021/08/23 04:21:24;;;;;;;28.40;25.60;;;;;;;16.98;100.00;101996.59;5171637;28;20026;-67
2021/08/23 04:23:55;;;;;;;29.43;26.43;;;;;;;16.97;100.00;101994.91;5173178;28;20548;-68
2021/08/23 04:26:27;;;;;;;27.13;24.25;;;;;;;16.98;100.00;102004.53;5173551;28;20034;-68
2021/08/23 04:28:58;;;;;;;28.42;25.63;;;;;;;16.98;100.00;102013.31;5172073;28;20035;-68
2021/08/23 04:31:31;;;;;;;29.17;26.00;;;;;;;16.95;100.00;102004.84;5173631;28;20019;-67
2021/08/23 04:34:02;;;;;;;;;;;;;;;17.22;100.00;102009.34;5173712;28;20018;-67
2021/08/23 04:36:34;;;;;;;32.15;28.75;;;;;;;16.99;100.00;102016.81;5172746;28;20026;-67
2021/08/23 04:39:05;;;;;;;33.80;28.63;;;;;;;16.95;100.00;102021.53;5172735;28;20416;-67
2021/08/23 04:41:38;;;;;;;33.50;29.00;;;;;;;16.97;100.00;102026.69;5173183;28;20068;-68
2021/08/23 04:44:09;;;;;;;33.78;29.48;;;;;;;16.99;100.00;102032.69;5172745;28;20033;-68
2021/08/23 04:46:41;;;;;;;38.27;31.03;;;;;;;16.99;100.00;102030.88;5171600;28;20014;-68
2021/08/23 04:49:12;;;;;;;34.05;27.13;;;;;;;17.01;100.00;102036.03;5173155;28;20031;-68
2021/08/23 04:51:44;;;;;;;32.45;28.85;;;;;;;16.99;100.00;102032.69;5172558;28;20511;-68
2021/08/23 04:54:15;;;;;;;30.48;26.63;;;;;;;17.03;100.00;102032.25;5172741;28;20058;-68
2021/08/23 04:56:47;;;;;;;31.30;25.48;;;;;;;17.03;100.00;102039.34;5173014;28;20041;-68
2021/08/23 04:59:19;;;;;;;32.10;25.60;;;;;;;17.03;100.00;102047.31;5173113;28;20539;-68
2021/08/23 05:01:50;;;;;;;31.13;25.00;;;;;;;17.05;100.00;102053.31;5171556;28;20353;-68
2021/08/23 05:04:21;;;;;;;32.17;25.35;;;;;;;17.07;100.00;102053.97;5173113;28;20473;-68
2021/08/23 05:06:53;;;;;;;30.00;24.13;;;;;;;17.08;100.00;102052.16;5172867;28;20396;-67
2021/08/23 05:09:24;;;;;;;31.63;24.38;;;;;;;17.08;100.00;102060.09;5173180;28;20050;-68
2021/08/23 05:11:55;;;;;;;27.70;23.30;;;;;;;17.08;100.00;102063.59;5171891;28;20113;-68
2021/08/23 05:14:26;;;;;;;26.38;23.42;;;;;;;17.07;100.00;102072.50;5172756;28;20038;-68
2021/08/23 05:16:58;;;;;;;27.42;23.83;;;;;;;17.06;100.00;102068.22;5171979;28;20388;-68
2021/08/23 05:19:29;;;;;;;29.92;24.13;;;;;;;17.07;100.00;102071.69;5172435;28;20500;-67
2021/08/23 05:22:00;;;;;;;26.73;22.92;;;;;;;17.08;100.00;102076.81;5170009;28;20038;-67
2021/08/23 05:24:32;;;;;;;29.38;24.75;;;;;;;17.03;100.00;102073.78;5171237;28;20397;-67
2021/08/23 05:27:03;;;;;;;30.50;26.23;;;;;;;17.02;100.00;102080.06;5172720;28;20101;-66
2021/08/23 05:29:34;;;;;;;29.20;24.48;;;;;;;17.02;100.00;102085.34;5169818;28;20027;-67
2021/08/23 05:32:06;;;;;;;27.63;24.70;;;;;;;17.03;100.00;102087.00;5170991;28;20027;-67
2021/08/23 05:34:37;;;;;;;29.40;24.10;;;;;;;16.98;100.00;102090.09;5169902;28;20701;-68
2021/08/23 05:37:08;;;;;;;27.60;23.37;;;;;;;16.98;100.00;102092.75;5171667;28;20127;-68
2021/08/23 05:39:40;;;;;;;27.33;23.73;;;;;;;16.96;100.00;102092.03;5171974;28;20100;-68
2021/08/23 05:42:11;;;;;;;32.58;25.27;;;;;;;16.97;100.00;102098.16;5171358;28;20125;-68
2021/08/23 05:44:42;;;;;;;30.15;25.02;;;;;;;16.96;100.00;102107.09;5169650;28;20033;-68
2021/08/23 05:47:13;;;;;;;29.53;25.10;;;;;;;16.94;100.00;102101.13;5171575;28;20026;-68
2021/08/23 05:49:45;;;;;;;34.13;26.02;;;;;;;16.93;100.00;102108.22;5173617;28;20030;-67
2021/08/23 05:52:16;;;;;;;32.58;25.70;;;;;;;16.93;100.00;102107.38;5175808;28;20449;-67
2021/08/23 05:54:48;;;;;;;34.50;26.80;;;;;;;16.91;100.00;102117.28;5174050;28;20030;-66
2021/08/23 05:57:19;;;;;;;32.20;27.58;;;;;;;16.88;100.00;102122.84;5175331;28;20025;-67
2021/08/23 05:59:50;;;;;;;42.33;28.77;;;;;;;16.92;100.00;102124.22;5175212;28;20097;-67
2021/08/23 06:02:21;;;;;;;38.20;28.98;;;;;;;16.87;100.00;102123.81;5170409;28;20030;-67
2021/08/23 06:04:53;;;;;;;38.67;30.23;;;;;;;16.81;100.00;102138.44;5173311;28;20058;-67
2021/08/23 06:07:24;;;;;;;38.63;30.05;;;;;;;16.82;100.00;102139.28;5170404;28;20615;-67
2021/08/23 06:09:55;;;;;;;40.58;30.92;;;;;;;16.71;100.00;102140.22;5159804;28;20043;-67
2021/08/23 06:12:27;;;;;;;37.20;27.38;;;;;;;16.68;100.00;102146.63;5171027;28;20031;-67
2021/08/23 06:14:58;;;;;;;37.25;29.02;;;;;;;16.62;100.00;102144.53;5163884;28;20038;-68
2021/08/23 06:17:29;;;;;;;33.90;27.67;;;;;;;16.59;100.00;102138.66;5171396;28;20065;-69
2021/08/23 06:20:01;;;;;;;39.47;28.52;;;;;;;16.60;100.00;102151.78;5161373;28;20035;-67
2021/08/23 06:22:32;;;;;;;36.05;26.67;;;;;;;16.60;100.00;102146.50;5165645;28;20042;-67
2021/08/23 06:25:06;;;;;;;32.13;26.88;;;;;;;16.57;100.00;102148.56;5166363;28;20918;-67
2021/08/23 06:27:37;;;;;;;33.35;26.33;;;;;;;16.59;100.00;102150.09;5163302;28;20030;-67
2021/08/23 06:30:14;;;;;;;36.25;26.35;;;;;;;16.63;100.00;102150.66;5168625;28;20027;-67
2021/08/23 06:32:46;;;;;;;35.92;26.77;;;;;;;16.63;100.00;102155.94;5172041;28;20037;-67
2021/08/23 06:35:17;;;;;;;29.20;25.75;;;;;;;16.62;100.00;102160.41;5173091;28;20031;-67
2021/08/23 06:37:48;;;;;;;30.05;23.85;;;;;;;16.63;100.00;102163.88;5173410;28;20524;-67
2021/08/23 06:40:20;;;;;;;33.58;27.02;;;;;;;16.60;100.00;102164.19;5171556;28;20046;-67
2021/08/23 06:42:51;;;;;;;29.50;24.27;;;;;;;16.57;100.00;102167.09;5171799;28;20030;-67
2021/08/23 06:45:22;;;;;;;30.85;24.25;;;;;;;16.59;100.00;102165.97;5170719;28;20049;-68
2021/08/23 06:47:53;;;;;;;29.02;23.20;;;;;;;16.56;100.00;102168.06;5171713;28;20023;-67
2021/08/23 06:50:26;;;;;;;29.87;23.47;;;;;;;16.54;100.00;102162.91;5173085;28;20117;-68
2021/08/23 06:52:57;;;;;;;26.33;22.27;;;;;;;16.54;100.00;102176.13;5172373;28;20038;-67
2021/08/23 06:55:30;;;;;;;24.40;21.10;;;;;;;16.61;100.00;102179.91;5172804;28;20038;-66
2021/08/23 06:58:01;;;;;;;;;;;;;;;16.88;100.00;102176.63;5167556;28;20041;-69
2021/08/23 07:00:33;;;;;;;22.20;19.25;;;;;;;16.65;100.00;102176.00;5168184;28;19918;-69
2021/08/23 07:03:04;;;;;;;24.38;19.88;;;;;;;16.66;100.00;102177.66;5169858;28;20153;-69
2021/08/23 07:05:35;;;;;;;23.07;20.47;;;;;;;16.67;100.00;102176.72;5165903;28;20030;-66
2021/08/23 07:08:07;;;;;;;24.38;20.23;;;;;;;16.72;100.00;102179.78;5165194;28;20038;-67
2021/08/23 07:10:38;;;;;;;22.92;19.50;;;;;;;16.75;100.00;102181.34;5165925;28;20025;-66
2021/08/23 07:13:09;;;;;;;22.63;20.02;;;;;;;16.76;100.00;102188.31;5168905;28;20030;-67
2021/08/23 07:15:41;;;;;;;24.30;19.05;;;;;;;16.78;100.00;102189.00;5167340;28;20101;-67
2021/08/23 07:18:12;;;;;;;23.83;18.65;;;;;;;16.80;100.00;102184.41;5167254;28;20680;-67
2021/08/23 07:20:43;;;;;;;23.90;19.55;;;;;;;16.87;100.00;102190.00;5167426;28;20023;-67
2021/08/23 07:23:15;;;;;;;21.85;19.55;;;;;;;16.94;100.00;102201.72;5168970;28;20189;-67
2021/08/23 07:25:46;;;;;;;21.60;19.27;;;;;;;16.95;100.00;102192.78;5167789;28;20378;-66
2021/08/23 07:28:18;;;;;;;24.02;19.40;;;;;;;17.02;100.00;102185.97;5163662;28;20459;-67
2021/08/23 07:30:49;;;;;;;20.70;18.13;;;;;;;17.06;100.00;102200.59;5165807;28;20026;-66
2021/08/23 07:33:20;;;;;;;22.33;19.92;;;;;;;17.03;100.00;102200.88;5165652;28;20113;-69
2021/08/23 07:35:52;;;;;;;23.80;20.35;;;;;;;17.09;100.00;102199.50;5165110;28;20516;-67
2021/08/23 07:38:24;;;;;;;23.58;19.42;;;;;;;17.15;100.00;102209.50;5167040;28;20027;-67
2021/08/23 07:40:55;;;;;;;23.13;20.13;;;;;;;17.15;100.00;102207.69;5163631;28;20469;-68
2021/08/23 07:43:26;;;;;;;21.52;19.35;;;;;;;17.14;100.00;102216.63;5164269;28;20051;-68
2021/08/23 07:45:58;;;;;;;20.40;18.35;;;;;;;17.19;100.00;102219.66;5162992;28;20030;-69
2021/08/23 07:48:30;;;;;;;23.27;20.67;;;;;;;17.25;100.00;102220.94;5151257;28;20092;-69
2021/08/23 07:51:02;;;;;;;21.48;18.38;;;;;;;17.33;100.00;102207.00;5167055;28;20026;-69
2021/08/23 07:53:35;;;;;;;22.17;19.42;;;;;;;17.33;100.00;102225.53;5161866;28;20518;-68
2021/08/23 07:56:06;;;;;;;22.38;20.10;;;;;;;17.42;100.00;102222.84;5164201;28;20031;-68
2021/08/23 07:58:37;;;;;;;23.40;19.40;;;;;;;17.44;100.00;102220.91;5166362;28;20029;-68
2021/08/23 08:01:09;;;;;;;20.80;18.33;;;;;;;17.59;100.00;102221.31;5166961;28;20287;-68
2021/08/23 08:03:40;;;;;;;20.00;17.90;;;;;;;17.59;100.00;102229.25;5166541;28;20086;-69
2021/08/23 08:06:11;;;;;;;21.00;18.70;;;;;;;17.68;100.00;102230.22;5166778;28;20054;-68
2021/08/23 08:08:43;;;;;;;23.55;19.42;;;;;;;17.73;100.00;102234.13;5163928;28;20153;-68
2021/08/23 08:11:14;;;;;;;22.47;18.73;;;;;;;17.72;100.00;102231.59;5167499;28;20056;-68
2021/08/23 08:13:46;;;;;;;19.45;17.30;;;;;;;17.87;100.00;102240.81;5165948;28;20030;-68
2021/08/23 08:16:18;;;;;;;20.57;17.13;;;;;;;17.85;100.00;102240.13;5166638;28;20069;-69
2021/08/23 08:18:49;;;;;;;19.48;17.25;;;;;;;17.84;100.00;102245.56;5166009;28;20488;-68
2021/08/23 08:21:22;;;;;;;18.00;16.13;;;;;;;17.79;100.00;102238.03;5167632;28;20113;-68
2021/08/23 08:23:54;;;;;;;16.27;14.20;;;;;;;17.87;100.00;102246.09;5161262;28;20039;-68
2021/08/23 08:26:25;;;;;;;16.90;15.18;;;;;;;17.90;100.00;102252.94;5165633;28;20411;-68
2021/08/23 08:28:57;;;;;;;15.87;14.33;;;;;;;17.87;100.00;102250.56;5168579;28;20650;-68
2021/08/23 08:31:28;;;;;;;15.20;13.43;;;;;;;17.93;100.00;102252.66;5168214;28;20077;-69
2021/08/23 08:33:59;;;;;;;16.00;13.77;;;;;;;17.96;100.00;102253.22;5167292;28;20049;-68
2021/08/23 08:36:31;;;;;;;14.13;12.10;;;;;;;18.05;100.00;102255.97;5167084;28;20412;-68
2021/08/23 08:39:03;;;;;;;14.47;12.87;;;;;;;18.23;100.00;102254.25;5165470;28;20424;-68
2021/08/23 08:41:34;;;;;;;18.77;13.63;;;;;;;18.35;100.00;102255.72;5168175;28;20073;-68
2021/08/23 08:44:05;;;;;;;15.23;13.23;;;;;;;18.55;100.00;102261.75;5166570;28;20031;-68
2021/08/23 08:46:37;;;;;;;12.80;11.33;;;;;;;18.58;100.00;102261.47;5168352;28;20129;-69
2021/08/23 08:49:12;;;;;;;12.13;10.83;;;;;;;18.59;100.00;102255.16;5168536;28;20030;-69
2021/08/23 08:51:45;;;;;;;11.55;9.57;;;;;;;18.39;100.00;102261.56;5166295;28;20029;-69
2021/08/23 08:54:17;;;;;;;10.02;8.52;;;;;;;18.54;100.00;102268.06;5162798;28;20556;-69
2021/08/23 08:56:48;;;;;;;10.60;8.27;;;;;;;18.43;100.00;102274.38;5166446;28;20046;-69
2021/08/23 08:59:20;;;;;;;10.33;8.47;;;;;;;18.48;100.00;102277.41;5163318;28;20511;-69
2021/08/23 09:01:51;;;;;;;11.53;8.03;;;;;;;18.51;100.00;102276.31;5168682;28;20060;-69
2021/08/23 09:04:37;;;;;;;11.40;8.27;;;;;;;18.56;100.00;102279.38;5165215;28;20031;-69
2021/08/23 09:07:10;;;;;;;8.63;7.80;;;;;;;18.62;100.00;102275.28;5165424;28;20034;-69
2021/08/23 09:09:42;;;;;;;10.30;7.88;;;;;;;18.64;100.00;102283.94;5164107;28;20058;-69
2021/08/23 09:12:14;;;;;;;9.27;7.93;;;;;;;18.63;100.00;102287.56;5167999;28;20026;-70
2021/08/23 09:14:54;;;;;;;11.25;8.25;;;;;;;18.69;100.00;102286.97;5163419;28;20026;-69
2021/08/23 09:17:26;;;;;;;10.02;8.65;;;;;;;18.67;100.00;102289.75;5162789;28;20030;-69
2021/08/23 09:20:05;;;;;;;9.40;7.47;;;;;;;18.74;100.00;102290.03;5161842;28;20397;-69
2021/08/23 09:22:37;;;;;;;10.10;7.63;;;;;;;18.78;100.00;102301.22;5164656;28;20037;-69
2021/08/23 09:25:11;;;;;;;8.63;7.63;;;;;;;18.86;100.00;102298.63;5164547;28;20027;-69
2021/08/23 09:27:43;;;;;;;10.60;7.93;;;;;;;18.78;100.00;102301.22;5162755;28;20541;-69
2021/08/23 09:30:15;;;;;;;8.80;7.40;;;;;;;18.90;100.00;102295.56;5171984;28;20031;-69
2021/08/23 09:32:48;;;;;;;8.52;7.32;;;;;;;18.98;100.00;102300.13;5171375;28;20035;-69
2021/08/23 09:35:35;;;;;;;10.68;7.55;;;;;;;19.09;100.00;102299.91;5167594;28;20031;-69
2021/08/23 09:38:09;;;;;;;10.70;7.70;;;;;;;19.23;100.00;102303.00;5167312;28;20117;-69
2021/08/23 09:40:40;;;;;;;7.90;7.05;;;;;;;19.34;100.00;102292.16;5166608;28;20046;-69
2021/08/23 09:43:15;;;;;;;8.17;7.10;;;;;;;19.42;100.00;102302.84;5166302;28;20571;-69
2021/08/23 09:45:48;;;;;;;9.73;6.70;;;;;;;19.40;100.00;102299.53;5168594;28;20410;-69
2021/08/23 09:48:20;;;;;;;10.70;6.97;;;;;;;19.37;100.00;102305.16;5168707;28;20471;-69
2021/08/23 09:50:51;;;;;;;11.30;7.40;;;;;;;19.34;100.00;102303.63;5171201;28;20030;-69
2021/08/23 09:53:23;;;;;;;10.17;7.60;;;;;;;19.39;100.00;102303.16;5170923;28;20421;-69
2021/08/23 09:55:55;;;;;;;8.57;6.13;;;;;;;19.36;100.00;102306.16;5168815;28;20031;-69
2021/08/23 09:58:28;;;;;;;8.90;6.60;;;;;;;19.40;100.00;102294.22;5167761;28;20113;-69
2021/08/23 10:00:59;;;;;;;8.82;6.70;;;;;;;19.56;100.00;102312.97;5170525;28;20025;-69
2021/08/23 10:03:31;;;;;;;8.30;7.50;;;;;;;19.65;100.00;102305.91;5167545;28;20038;-67
2021/08/23 10:06:03;;;;;;;12.87;7.67;;;;;;;19.71;100.00;102310.63;5166178;28;20049;-67
2021/08/23 10:08:34;;;;;;;11.07;7.00;;;;;;;19.78;100.00;102310.84;5168551;28;20510;-68
2021/08/23 10:11:09;;;;;;;9.33;7.27;;;;;;;19.88;100.00;102312.38;5169951;28;20358;-67
2021/08/23 10:13:41;;;;;;;11.73;6.68;;;;;;;19.74;100.00;102314.81;5166281;28;20035;-69
2021/08/23 10:16:12;;;;;;;8.23;6.67;;;;;;;19.69;100.00;102312.59;5166633;28;20026;-68
2021/08/23 10:18:44;;;;;;;6.93;6.20;;;;;;;19.81;100.00;102311.38;5169069;28;20397;-67
2021/08/23 10:21:17;;;;;;;9.38;5.97;;;;;;;19.98;100.00;102306.16;5167804;28;20555;-68
2021/08/23 10:23:50;;;;;;;9.82;5.65;;;;;;;20.16;100.00;102310.44;5169212;28;21381;-68
2021/08/23 10:26:22;;;;;;;8.85;5.70;;;;;;;20.06;100.00;102323.00;5163714;28;20043;-68
2021/08/23 10:28:54;;;;;;;6.65;5.25;;;;;;;20.09;100.00;102312.03;5163912;28;20023;-67
2021/08/23 10:31:34;;;;;;;13.77;5.30;;;;;;;20.12;100.00;102322.38;5165869;28;20034;-67
2021/08/23 10:34:11;;;;;;;7.43;5.25;;;;;;;20.10;100.00;102332.31;5164507;28;20511;-68
2021/08/23 10:36:45;;;;;;;7.78;5.13;;;;;;;19.97;100.00;102317.78;5161426;28;20056;-68
2021/08/23 10:39:24;;;;;;;8.32;5.70;;;;;;;20.05;100.00;102334.63;5160365;28;20074;-67
2021/08/23 10:41:56;;;;;;;6.28;5.32;;;;;;;19.96;100.00;102332.06;5161376;28;20041;-67
2021/08/23 10:44:33;;;;;;;8.43;4.93;;;;;;;20.04;100.00;102327.66;5166200;28;20023;-67
2021/08/23 10:47:10;;;;;;;8.75;4.78;;;;;;;20.08;100.00;102337.00;5169356;28;20405;-68
2021/08/23 10:49:47;;;;;;;8.40;5.07;;;;;;;20.08;100.00;102329.00;5153706;28;20407;-67
2021/08/23 10:52:30;;;;;;;8.73;4.80;;;;;;;20.03;100.00;102328.63;5169358;28;20457;-68
2021/08/23 10:55:06;;;;;;;7.40;5.20;;;;;;;19.91;100.00;102333.38;5167133;28;20743;-68
2021/08/23 10:57:37;;;;;;;7.53;5.40;;;;;;;19.93;100.00;102335.88;5166000;28;20035;-66
2021/08/23 11:00:14;;;;;;;7.00;5.00;;;;;;;20.03;100.00;102328.63;5166089;28;20431;-67
2021/08/23 11:02:45;;;;;;;7.00;4.75;;;;;;;20.00;100.00;102336.06;5168071;28;20026;-68
2021/08/23 11:05:20;;;;;;;5.13;4.37;;;;;;;20.05;100.00;102329.31;5163761;28;20035;-68
2021/08/23 11:08:00;;;;;;;8.20;5.85;;;;;;;20.00;100.00;102341.41;5167444;28;20030;-68
2021/08/23 11:10:32;;;;;;;9.15;4.90;;;;;;;20.02;100.00;102328.78;5161508;28;20117;-68
2021/08/23 11:13:13;;;;;;;7.43;4.78;;;;;;;20.20;100.00;102331.41;5166287;28;20392;-67
2021/08/23 11:15:45;;;;;;;9.75;5.93;;;;;;;20.07;100.00;102343.28;5161944;28;20476;-67
2021/08/23 11:18:18;;;;;;;7.18;5.22;;;;;;;20.10;100.00;102350.13;5165222;28;20046;-66
2021/08/23 11:20:52;;;;;;;6.88;5.10;;;;;;;20.04;100.00;102338.28;5165516;28;20217;-68
2021/08/23 11:23:27;;;;;;;6.05;5.10;;;;;;;20.11;100.00;102338.47;5162844;28;20053;-68
2021/08/23 11:25:59;;;;;;;6.60;5.18;;;;;;;20.00;100.00;102336.94;5164293;28;20278;-68
2021/08/23 11:28:31;;;;;;;8.13;5.22;;;;;;;20.04;100.00;102338.28;5165256;28;20400;-66